Leonard, ND (58052)

8:37 AM CST on February 09, 2016 (GMT -0600)
Hellendale Township | | Change Station
CLOSE
Current Station
Personal Weather Station
Location: Leonard, ND
Elevation: 1066 ft
Nearby Weather Stations

Elev 1066 ft 46.58 °N, 97.24 °W | Updated 0 second ago

Overcast
Overcast
11.9 °F
Feels Like 3 °F
N
5.0
Wind Variable Wind from NNW
Gusts 10.0 mph

Today
High -- | Low -- °F
--% Chance of Precip.
Yesterday
High -- | Low -- °F
Precip. -- in
Pressure 30.34 in
Visibility 10.0 miles
Clouds Overcast 6000 ft
Windchill 3 °F
Dew Point 7 °F
Humidity 79%
Rainfall 0.00 in
Snow Depth Not available.
7:42 AM 5:44 PM
New Moon, 1% visible
METAR KFAR 091353Z 35009KT 10SM OVC060 M12/M16 A3028 RMK AO2 SLP274 T11171156
Pressure 30.34 in
Visibility 10.0 miles
Clouds Overcast 6000 ft
Windchill 3 °F
Dew Point 7 °F
Humidity 79%
Rainfall 0.00 in
Snow Depth Not available.
7:42 AM 5:44 PM
New Moon, 1% visible
METAR KFAR 091353Z 35009KT 10SM OVC060 M12/M16 A3028 RMK AO2 SLP274 T11171156

10-Day Weather Forecast

Almanac

Astronomy

Feb. 09, 2016 Rise Set
Actual Time
Civil Twilight
Nautical Twilight
Astronomical Twilight
Moon
Length of Visible Light
Length of Day
Tomorrow will be .
, % of the Moon is Illuminated

Today's Extremes

State Highs State Lows

Community

WunderPhotos

Upload Photos

1,891,606 photos uploaded!

WunderBlog® & News

Nearby

Air Quality

  Air Quality AQ Index Pollutant
Not available.

Snow Depth

Station Depth Elevation

Earthquake Activity

City Distance Mag. Time & Date
Minimum magnitude displayed is 2.5.

Coastal Water Temperatures

Place Temperature

Stations

Nearby Weather Stations

Station Location Temp. Windchill Dew Point Humidity Wind Precip. Elev Updated Type
                   

Watches & Warnings

There are currently no watches in effect.